sensor_id;sensor_type;location;lat;lon;timestamp;P1;durP1;ratioP1;P2;durP2;ratioP2
50900;SDS011;36879;51.416;6.678;2023-02-08T00:02:14;20.88;;;11.35;;
50900;SDS011;36879;51.416;6.678;2023-02-08T00:04:40;21.67;;;12.57;;
50900;SDS011;36879;51.416;6.678;2023-02-08T00:07:05;20.52;;;11.15;;
50900;SDS011;36879;51.416;6.678;2023-02-08T00:09:31;20.77;;;11.45;;
50900;SDS011;36879;51.416;6.678;2023-02-08T00:11:58;18.27;;;11.35;;
50900;SDS011;36879;51.416;6.678;2023-02-08T00:14:23;24.65;;;12.93;;
50900;SDS011;36879;51.416;6.678;2023-02-08T00:16:50;21.40;;;11.82;;
50900;SDS011;36879;51.416;6.678;2023-02-08T00:20:52;20.30;;;10.77;;
50900;SDS011;36879;51.416;6.678;2023-02-08T00:24:28;17.52;;;10.20;;
50900;SDS011;36879;51.416;6.678;2023-02-08T00:28:06;22.83;;;12.35;;
50900;SDS011;36879;51.416;6.678;2023-02-08T00:30:32;18.60;;;11.00;;
50900;SDS011;36879;51.416;6.678;2023-02-08T00:32:59;28.05;;;12.90;;
50900;SDS011;36879;51.416;6.678;2023-02-08T00:35:26;25.00;;;12.23;;
50900;SDS011;36879;51.416;6.678;2023-02-08T00:37:52;21.33;;;10.70;;
50900;SDS011;36879;51.416;6.678;2023-02-08T00:40:18;21.23;;;10.98;;
50900;SDS011;36879;51.416;6.678;2023-02-08T00:42:44;20.55;;;11.13;;
50900;SDS011;36879;51.416;6.678;2023-02-08T00:45:10;20.55;;;11.23;;
50900;SDS011;36879;51.416;6.678;2023-02-08T00:47:36;23.35;;;10.48;;
50900;SDS011;36879;51.416;6.678;2023-02-08T00:50:03;20.65;;;11.80;;
50900;SDS011;36879;51.416;6.678;2023-02-08T00:52:29;22.63;;;12.40;;
50900;SDS011;36879;51.416;6.678;2023-02-08T00:54:55;21.40;;;10.85;;
50900;SDS011;36879;51.416;6.678;2023-02-08T00:57:21;26.23;;;10.13;;
50900;SDS011;36879;51.416;6.678;2023-02-08T00:59:47;22.30;;;11.27;;
50900;SDS011;36879;51.416;6.678;2023-02-08T01:02:13;19.83;;;11.82;;
50900;SDS011;36879;51.416;6.678;2023-02-08T01:04:39;20.33;;;10.35;;
50900;SDS011;36879;51.416;6.678;2023-02-08T01:07:05;20.63;;;11.10;;
50900;SDS011;36879;51.416;6.678;2023-02-08T01:09:31;22.80;;;11.25;;
50900;SDS011;36879;51.416;6.678;2023-02-08T01:11:57;21.98;;;10.75;;
50900;SDS011;36879;51.416;6.678;2023-02-08T01:14:23;22.20;;;10.27;;
50900;SDS011;36879;51.416;6.678;2023-02-08T01:16:49;18.98;;;11.23;;
50900;SDS011;36879;51.416;6.678;2023-02-08T01:19:16;19.88;;;10.10;;
50900;SDS011;36879;51.416;6.678;2023-02-08T01:21:42;21.15;;;10.65;;
50900;SDS011;36879;51.416;6.678;2023-02-08T01:24:08;19.05;;;10.23;;
50900;SDS011;36879;51.416;6.678;2023-02-08T01:26:34;19.15;;;9.25;;
50900;SDS011;36879;51.416;6.678;2023-02-08T01:29:00;21.58;;;10.35;;
50900;SDS011;36879;51.416;6.678;2023-02-08T01:31:27;22.63;;;11.15;;
50900;SDS011;36879;51.416;6.678;2023-02-08T01:33:54;19.38;;;11.45;;
50900;SDS011;36879;51.416;6.678;2023-02-08T01:36:20;24.17;;;10.32;;
50900;SDS011;36879;51.416;6.678;2023-02-08T01:38:47;19.80;;;10.23;;
50900;SDS011;36879;51.416;6.678;2023-02-08T01:41:14;21.65;;;10.60;;
50900;SDS011;36879;51.416;6.678;2023-02-08T01:46:25;20.52;;;9.85;;
50900;SDS011;36879;51.416;6.678;2023-02-08T01:48:51;19.85;;;10.45;;
50900;SDS011;36879;51.416;6.678;2023-02-08T01:51:19;18.92;;;9.60;;
50900;SDS011;36879;51.416;6.678;2023-02-08T01:53:45;18.27;;;8.98;;
50900;SDS011;36879;51.416;6.678;2023-02-08T01:56:13;21.20;;;10.45;;
50900;SDS011;36879;51.416;6.678;2023-02-08T01:58:44;21.55;;;10.63;;
50900;SDS011;36879;51.416;6.678;2023-02-08T02:01:11;18.05;;;11.35;;
50900;SDS011;36879;51.416;6.678;2023-02-08T02:03:38;19.95;;;9.30;;
50900;SDS011;36879;51.416;6.678;2023-02-08T02:06:07;16.50;;;9.68;;
50900;SDS011;36879;51.416;6.678;2023-02-08T02:08:34;21.40;;;10.88;;
50900;SDS011;36879;51.416;6.678;2023-02-08T02:11:00;17.10;;;10.20;;
50900;SDS011;36879;51.416;6.678;2023-02-08T02:13:27;20.15;;;11.48;;
50900;SDS011;36879;51.416;6.678;2023-02-08T02:15:53;19.92;;;9.73;;
50900;SDS011;36879;51.416;6.678;2023-02-08T02:18:23;17.05;;;10.02;;
50900;SDS011;36879;51.416;6.678;2023-02-08T02:21:06;16.92;;;10.35;;
50900;SDS011;36879;51.416;6.678;2023-02-08T02:36:44;20.95;;;9.95;;
50900;SDS011;36879;51.416;6.678;2023-02-08T02:41:41;21.13;;;10.48;;
50900;SDS011;36879;51.416;6.678;2023-02-08T02:47:18;22.35;;;10.45;;
50900;SDS011;36879;51.416;6.678;2023-02-08T02:49:47;16.40;;;9.10;;
50900;SDS011;36879;51.416;6.678;2023-02-08T02:52:16;23.98;;;11.35;;
50900;SDS011;36879;51.416;6.678;2023-02-08T02:54:46;18.45;;;9.32;;
50900;SDS011;36879;51.416;6.678;2023-02-08T02:57:15;21.42;;;9.57;;
50900;SDS011;36879;51.416;6.678;2023-02-08T02:59:42;18.48;;;10.48;;
50900;SDS011;36879;51.416;6.678;2023-02-08T03:02:10;21.60;;;11.05;;
50900;SDS011;36879;51.416;6.678;2023-02-08T03:19:43;17.80;;;10.05;;
50900;SDS011;36879;51.416;6.678;2023-02-08T03:22:14;24.10;;;11.55;;
50900;SDS011;36879;51.416;6.678;2023-02-08T03:27:22;22.15;;;10.20;;
50900;SDS011;36879;51.416;6.678;2023-02-08T03:32:16;21.52;;;11.20;;
50900;SDS011;36879;51.416;6.678;2023-02-08T03:34:52;22.17;;;10.85;;
50900;SDS011;36879;51.416;6.678;2023-02-08T03:37:20;24.55;;;10.75;;
50900;SDS011;36879;51.416;6.678;2023-02-08T03:39:47;24.45;;;11.15;;
50900;SDS011;36879;51.416;6.678;2023-02-08T03:42:18;22.10;;;11.15;;
50900;SDS011;36879;51.416;6.678;2023-02-08T03:44:53;23.58;;;11.73;;
50900;SDS011;36879;51.416;6.678;2023-02-08T03:47:24;22.67;;;11.77;;
50900;SDS011;36879;51.416;6.678;2023-02-08T03:49:52;22.42;;;11.13;;
50900;SDS011;36879;51.416;6.678;2023-02-08T03:52:20;16.00;;;9.50;;
50900;SDS011;36879;51.416;6.678;2023-02-08T03:54:52;22.17;;;10.43;;
50900;SDS011;36879;51.416;6.678;2023-02-08T03:57:21;20.83;;;10.55;;
50900;SDS011;36879;51.416;6.678;2023-02-08T03:59:49;21.90;;;10.68;;
50900;SDS011;36879;51.416;6.678;2023-02-08T04:02:19;22.48;;;10.88;;
50900;SDS011;36879;51.416;6.678;2023-02-08T04:04:46;20.92;;;11.48;;
50900;SDS011;36879;51.416;6.678;2023-02-08T04:07:15;27.23;;;10.32;;
50900;SDS011;36879;51.416;6.678;2023-02-08T04:09:41;19.17;;;10.07;;
50900;SDS011;36879;51.416;6.678;2023-02-08T04:12:07;22.20;;;11.27;;
50900;SDS011;36879;51.416;6.678;2023-02-08T04:14:33;22.77;;;10.52;;
50900;SDS011;36879;51.416;6.678;2023-02-08T04:16:59;19.70;;;10.07;;
50900;SDS011;36879;51.416;6.678;2023-02-08T04:19:25;19.27;;;10.18;;
50900;SDS011;36879;51.416;6.678;2023-02-08T04:21:51;25.35;;;12.82;;
50900;SDS011;36879;51.416;6.678;2023-02-08T04:24:17;24.40;;;10.77;;
50900;SDS011;36879;51.416;6.678;2023-02-08T04:28:43;23.17;;;11.00;;
50900;SDS011;36879;51.416;6.678;2023-02-08T04:31:09;22.30;;;10.68;;
50900;SDS011;36879;51.416;6.678;2023-02-08T04:33:35;23.65;;;10.63;;
50900;SDS011;36879;51.416;6.678;2023-02-08T04:36:01;21.60;;;11.32;;
50900;SDS011;36879;51.416;6.678;2023-02-08T04:38:27;22.92;;;11.27;;
50900;SDS011;36879;51.416;6.678;2023-02-08T04:40:53;22.67;;;11.20;;
50900;SDS011;36879;51.416;6.678;2023-02-08T04:43:19;22.55;;;11.73;;
50900;SDS011;36879;51.416;6.678;2023-02-08T04:45:45;20.80;;;12.77;;
50900;SDS011;36879;51.416;6.678;2023-02-08T04:48:11;18.15;;;9.65;;
50900;SDS011;36879;51.416;6.678;2023-02-08T04:50:37;23.90;;;12.40;;
50900;SDS011;36879;51.416;6.678;2023-02-08T04:53:03;19.42;;;11.23;;
50900;SDS011;36879;51.416;6.678;2023-02-08T04:55:30;22.40;;;11.07;;
50900;SDS011;36879;51.416;6.678;2023-02-08T04:57:56;19.08;;;10.13;;
50900;SDS011;36879;51.416;6.678;2023-02-08T05:00:22;24.15;;;11.27;;
50900;SDS011;36879;51.416;6.678;2023-02-08T05:02:51;20.52;;;11.15;;
50900;SDS011;36879;51.416;6.678;2023-02-08T05:05:17;25.13;;;13.20;;
50900;SDS011;36879;51.416;6.678;2023-02-08T05:07:43;20.60;;;10.68;;
50900;SDS011;36879;51.416;6.678;2023-02-08T05:10:09;16.17;;;10.77;;
50900;SDS011;36879;51.416;6.678;2023-02-08T05:12:35;18.90;;;11.15;;
50900;SDS011;36879;51.416;6.678;2023-02-08T05:15:01;24.75;;;12.73;;
50900;SDS011;36879;51.416;6.678;2023-02-08T05:17:27;18.73;;;11.02;;
50900;SDS011;36879;51.416;6.678;2023-02-08T05:19:53;20.30;;;11.18;;
50900;SDS011;36879;51.416;6.678;2023-02-08T05:22:19;22.83;;;11.90;;
50900;SDS011;36879;51.416;6.678;2023-02-08T05:24:45;23.08;;;10.02;;
50900;SDS011;36879;51.416;6.678;2023-02-08T05:27:11;22.52;;;11.65;;
50900;SDS011;36879;51.416;6.678;2023-02-08T05:29:37;23.77;;;11.55;;
50900;SDS011;36879;51.416;6.678;2023-02-08T05:32:03;24.65;;;12.88;;
50900;SDS011;36879;51.416;6.678;2023-02-08T05:34:29;27.05;;;12.95;;
50900;SDS011;36879;51.416;6.678;2023-02-08T05:36:55;19.73;;;11.55;;
50900;SDS011;36879;51.416;6.678;2023-02-08T05:39:21;24.77;;;12.70;;
50900;SDS011;36879;51.416;6.678;2023-02-08T05:41:47;21.48;;;11.35;;
50900;SDS011;36879;51.416;6.678;2023-02-08T05:44:13;29.20;;;13.82;;
50900;SDS011;36879;51.416;6.678;2023-02-08T05:46:39;24.52;;;13.48;;
50900;SDS011;36879;51.416;6.678;2023-02-08T05:49:05;28.27;;;14.98;;
50900;SDS011;36879;51.416;6.678;2023-02-08T05:51:32;33.20;;;15.45;;
50900;SDS011;36879;51.416;6.678;2023-02-08T05:53:58;34.30;;;15.93;;
50900;SDS011;36879;51.416;6.678;2023-02-08T05:56:24;28.08;;;15.60;;
50900;SDS011;36879;51.416;6.678;2023-02-08T05:58:50;26.73;;;15.65;;
50900;SDS011;36879;51.416;6.678;2023-02-08T06:01:15;34.03;;;16.63;;
50900;SDS011;36879;51.416;6.678;2023-02-08T06:03:41;31.27;;;15.85;;
50900;SDS011;36879;51.416;6.678;2023-02-08T06:06:07;36.00;;;17.52;;
50900;SDS011;36879;51.416;6.678;2023-02-08T06:08:37;36.67;;;17.65;;
50900;SDS011;36879;51.416;6.678;2023-02-08T06:11:03;37.75;;;17.70;;
50900;SDS011;36879;51.416;6.678;2023-02-08T06:13:29;33.05;;;17.02;;
50900;SDS011;36879;51.416;6.678;2023-02-08T06:15:55;30.60;;;16.80;;
50900;SDS011;36879;51.416;6.678;2023-02-08T06:18:21;27.02;;;16.20;;
50900;SDS011;36879;51.416;6.678;2023-02-08T06:20:47;37.92;;;17.38;;
50900;SDS011;36879;51.416;6.678;2023-02-08T06:23:13;32.72;;;17.13;;
50900;SDS011;36879;51.416;6.678;2023-02-08T06:25:39;28.35;;;16.08;;
50900;SDS011;36879;51.416;6.678;2023-02-08T06:28:05;33.75;;;16.70;;
50900;SDS011;36879;51.416;6.678;2023-02-08T06:30:34;32.65;;;17.27;;
50900;SDS011;36879;51.416;6.678;2023-02-08T06:33:00;29.63;;;16.45;;
50900;SDS011;36879;51.416;6.678;2023-02-08T06:35:26;31.20;;;15.88;;
50900;SDS011;36879;51.416;6.678;2023-02-08T06:37:52;34.90;;;18.10;;
50900;SDS011;36879;51.416;6.678;2023-02-08T06:40:18;31.95;;;18.92;;
50900;SDS011;36879;51.416;6.678;2023-02-08T06:42:45;33.78;;;19.20;;
50900;SDS011;36879;51.416;6.678;2023-02-08T06:45:11;36.05;;;18.63;;
50900;SDS011;36879;51.416;6.678;2023-02-08T06:47:37;33.67;;;18.02;;
50900;SDS011;36879;51.416;6.678;2023-02-08T06:50:04;37.05;;;18.92;;
50900;SDS011;36879;51.416;6.678;2023-02-08T06:52:30;36.15;;;19.25;;
50900;SDS011;36879;51.416;6.678;2023-02-08T06:54:56;29.10;;;18.90;;
50900;SDS011;36879;51.416;6.678;2023-02-08T06:57:22;49.28;;;20.40;;
50900;SDS011;36879;51.416;6.678;2023-02-08T06:59:48;45.03;;;23.50;;
50900;SDS011;36879;51.416;6.678;2023-02-08T07:02:16;42.47;;;21.40;;
50900;SDS011;36879;51.416;6.678;2023-02-08T07:04:42;39.13;;;20.88;;
50900;SDS011;36879;51.416;6.678;2023-02-08T07:07:10;43.45;;;24.52;;
50900;SDS011;36879;51.416;6.678;2023-02-08T07:09:36;42.85;;;25.25;;
50900;SDS011;36879;51.416;6.678;2023-02-08T07:12:02;53.67;;;26.73;;
50900;SDS011;36879;51.416;6.678;2023-02-08T07:14:32;40.50;;;23.05;;
50900;SDS011;36879;51.416;6.678;2023-02-08T07:16:59;49.08;;;25.83;;
50900;SDS011;36879;51.416;6.678;2023-02-08T07:19:25;45.70;;;25.77;;
50900;SDS011;36879;51.416;6.678;2023-02-08T07:21:51;49.50;;;26.33;;
50900;SDS011;36879;51.416;6.678;2023-02-08T07:24:17;53.17;;;27.73;;
50900;SDS011;36879;51.416;6.678;2023-02-08T07:26:43;45.85;;;25.95;;
50900;SDS011;36879;51.416;6.678;2023-02-08T07:29:09;46.67;;;25.13;;
50900;SDS011;36879;51.416;6.678;2023-02-08T07:31:35;44.72;;;26.85;;
50900;SDS011;36879;51.416;6.678;2023-02-08T07:34:01;48.33;;;27.45;;
50900;SDS011;36879;51.416;6.678;2023-02-08T07:36:27;55.08;;;28.67;;
50900;SDS011;36879;51.416;6.678;2023-02-08T07:38:53;54.72;;;28.42;;
50900;SDS011;36879;51.416;6.678;2023-02-08T07:41:19;46.78;;;25.23;;
50900;SDS011;36879;51.416;6.678;2023-02-08T07:43:45;50.60;;;28.15;;
50900;SDS011;36879;51.416;6.678;2023-02-08T07:46:18;42.83;;;24.33;;
50900;SDS011;36879;51.416;6.678;2023-02-08T07:48:45;43.65;;;23.75;;
50900;SDS011;36879;51.416;6.678;2023-02-08T07:51:11;45.95;;;26.30;;
50900;SDS011;36879;51.416;6.678;2023-02-08T07:53:37;44.63;;;24.52;;
50900;SDS011;36879;51.416;6.678;2023-02-08T07:56:04;44.22;;;24.70;;
50900;SDS011;36879;51.416;6.678;2023-02-08T07:58:30;44.70;;;23.80;;
50900;SDS011;36879;51.416;6.678;2023-02-08T08:00:57;47.78;;;23.05;;
50900;SDS011;36879;51.416;6.678;2023-02-08T08:03:23;52.00;;;25.60;;
50900;SDS011;36879;51.416;6.678;2023-02-08T08:05:49;42.40;;;23.08;;
50900;SDS011;36879;51.416;6.678;2023-02-08T08:08:15;40.67;;;22.73;;
50900;SDS011;36879;51.416;6.678;2023-02-08T08:10:41;46.17;;;26.13;;
50900;SDS011;36879;51.416;6.678;2023-02-08T08:13:08;46.15;;;23.45;;
50900;SDS011;36879;51.416;6.678;2023-02-08T08:15:34;43.42;;;22.85;;
50900;SDS011;36879;51.416;6.678;2023-02-08T08:18:00;45.50;;;23.45;;
50900;SDS011;36879;51.416;6.678;2023-02-08T08:20:26;42.40;;;23.35;;
50900;SDS011;36879;51.416;6.678;2023-02-08T08:22:52;39.47;;;24.73;;
50900;SDS011;36879;51.416;6.678;2023-02-08T08:25:18;44.67;;;23.95;;
50900;SDS011;36879;51.416;6.678;2023-02-08T08:27:44;41.63;;;23.15;;
50900;SDS011;36879;51.416;6.678;2023-02-08T08:30:11;51.80;;;23.67;;
50900;SDS011;36879;51.416;6.678;2023-02-08T08:32:38;38.13;;;21.48;;
50900;SDS011;36879;51.416;6.678;2023-02-08T08:35:04;37.60;;;22.73;;
50900;SDS011;36879;51.416;6.678;2023-02-08T08:37:30;36.17;;;21.70;;
50900;SDS011;36879;51.416;6.678;2023-02-08T08:39:56;39.03;;;22.02;;
50900;SDS011;36879;51.416;6.678;2023-02-08T08:42:22;37.92;;;20.50;;
50900;SDS011;36879;51.416;6.678;2023-02-08T08:44:48;35.60;;;20.02;;
50900;SDS011;36879;51.416;6.678;2023-02-08T08:47:14;31.90;;;19.92;;
50900;SDS011;36879;51.416;6.678;2023-02-08T08:49:41;29.80;;;18.20;;
50900;SDS011;36879;51.416;6.678;2023-02-08T08:52:08;35.72;;;19.25;;
50900;SDS011;36879;51.416;6.678;2023-02-08T08:54:34;27.55;;;17.45;;
50900;SDS011;36879;51.416;6.678;2023-02-08T08:57:00;27.48;;;16.40;;
50900;SDS011;36879;51.416;6.678;2023-02-08T08:59:26;26.40;;;15.10;;
50900;SDS011;36879;51.416;6.678;2023-02-08T09:01:52;23.48;;;12.80;;
50900;SDS011;36879;51.416;6.678;2023-02-08T09:04:18;21.27;;;11.98;;
50900;SDS011;36879;51.416;6.678;2023-02-08T09:06:47;23.92;;;13.95;;
50900;SDS011;36879;51.416;6.678;2023-02-08T09:09:13;24.17;;;12.13;;
50900;SDS011;36879;51.416;6.678;2023-02-08T09:11:39;23.90;;;13.18;;
50900;SDS011;36879;51.416;6.678;2023-02-08T09:14:05;24.35;;;13.68;;
50900;SDS011;36879;51.416;6.678;2023-02-08T09:16:31;22.17;;;11.82;;
50900;SDS011;36879;51.416;6.678;2023-02-08T09:19:04;22.83;;;13.07;;
50900;SDS011;36879;51.416;6.678;2023-02-08T09:21:30;19.00;;;11.25;;
50900;SDS011;36879;51.416;6.678;2023-02-08T09:23:56;25.25;;;12.70;;
50900;SDS011;36879;51.416;6.678;2023-02-08T09:26:23;20.25;;;11.57;;
50900;SDS011;36879;51.416;6.678;2023-02-08T09:28:50;22.13;;;10.25;;
50900;SDS011;36879;51.416;6.678;2023-02-08T09:31:26;25.67;;;9.82;;
50900;SDS011;36879;51.416;6.678;2023-02-08T09:33:54;14.10;;;8.00;;
50900;SDS011;36879;51.416;6.678;2023-02-08T09:36:25;19.13;;;8.23;;
50900;SDS011;36879;51.416;6.678;2023-02-08T09:38:53;14.50;;;8.07;;
50900;SDS011;36879;51.416;6.678;2023-02-08T09:44:16;16.90;;;8.00;;
50900;SDS011;36879;51.416;6.678;2023-02-08T09:46:55;14.10;;;7.60;;
50900;SDS011;36879;51.416;6.678;2023-02-08T09:49:23;9.63;;;6.03;;
50900;SDS011;36879;51.416;6.678;2023-02-08T09:51:55;10.57;;;5.68;;
50900;SDS011;36879;51.416;6.678;2023-02-08T09:54:24;10.57;;;5.45;;
50900;SDS011;36879;51.416;6.678;2023-02-08T09:56:52;11.63;;;6.25;;
50900;SDS011;36879;51.416;6.678;2023-02-08T09:59:23;8.35;;;4.90;;
50900;SDS011;36879;51.416;6.678;2023-02-08T10:01:51;9.60;;;4.20;;
50900;SDS011;36879;51.416;6.678;2023-02-08T10:06:44;6.70;;;4.03;;
50900;SDS011;36879;51.416;6.678;2023-02-08T10:09:11;8.32;;;3.88;;
50900;SDS011;36879;51.416;6.678;2023-02-08T10:16:37;14.85;;;5.30;;
50900;SDS011;36879;51.416;6.678;2023-02-08T10:24:21;8.63;;;4.75;;
50900;SDS011;36879;51.416;6.678;2023-02-08T10:27:00;9.00;;;4.35;;
50900;SDS011;36879;51.416;6.678;2023-02-08T10:29:36;7.57;;;3.97;;
50900;SDS011;36879;51.416;6.678;2023-02-08T10:34:59;8.05;;;3.72;;
50900;SDS011;36879;51.416;6.678;2023-02-08T10:37:27;9.83;;;4.47;;
50900;SDS011;36879;51.416;6.678;2023-02-08T10:39:54;7.90;;;3.42;;
50900;SDS011;36879;51.416;6.678;2023-02-08T10:42:21;9.38;;;3.50;;
50900;SDS011;36879;51.416;6.678;2023-02-08T10:45:07;8.60;;;3.92;;
50900;SDS011;36879;51.416;6.678;2023-02-08T10:47:43;8.48;;;3.55;;
50900;SDS011;36879;51.416;6.678;2023-02-08T10:52:43;13.30;;;3.42;;
50900;SDS011;36879;51.416;6.678;2023-02-08T10:55:16;8.10;;;3.95;;
50900;SDS011;36879;51.416;6.678;2023-02-08T10:57:43;9.52;;;4.45;;
50900;SDS011;36879;51.416;6.678;2023-02-08T11:00:12;9.52;;;3.83;;
50900;SDS011;36879;51.416;6.678;2023-02-08T11:02:42;7.55;;;4.07;;
50900;SDS011;36879;51.416;6.678;2023-02-08T11:05:12;12.48;;;4.43;;
50900;SDS011;36879;51.416;6.678;2023-02-08T11:07:38;10.75;;;4.07;;
50900;SDS011;36879;51.416;6.678;2023-02-08T11:12:40;10.95;;;3.83;;
50900;SDS011;36879;51.416;6.678;2023-02-08T11:15:17;10.00;;;3.88;;
50900;SDS011;36879;51.416;6.678;2023-02-08T11:17:45;9.93;;;3.92;;
50900;SDS011;36879;51.416;6.678;2023-02-08T11:20:19;8.63;;;4.38;;
50900;SDS011;36879;51.416;6.678;2023-02-08T11:22:47;8.63;;;4.13;;
50900;SDS011;36879;51.416;6.678;2023-02-08T11:25:29;11.60;;;3.85;;
50900;SDS011;36879;51.416;6.678;2023-02-08T11:27:55;9.48;;;4.00;;
50900;SDS011;36879;51.416;6.678;2023-02-08T11:30:22;7.75;;;3.65;;
50900;SDS011;36879;51.416;6.678;2023-02-08T11:33:11;8.57;;;4.35;;
50900;SDS011;36879;51.416;6.678;2023-02-08T11:35:35;11.35;;;4.50;;
50900;SDS011;36879;51.416;6.678;2023-02-08T11:38:01;8.35;;;3.65;;
50900;SDS011;36879;51.416;6.678;2023-02-08T11:40:33;7.75;;;4.15;;
50900;SDS011;36879;51.416;6.678;2023-02-08T11:43:00;10.73;;;4.03;;
50900;SDS011;36879;51.416;6.678;2023-02-08T11:45:27;5.55;;;3.30;;
50900;SDS011;36879;51.416;6.678;2023-02-08T11:47:54;8.27;;;3.47;;
50900;SDS011;36879;51.416;6.678;2023-02-08T11:50:25;8.13;;;3.90;;
50900;SDS011;36879;51.416;6.678;2023-02-08T11:52:56;5.10;;;2.65;;
50900;SDS011;36879;51.416;6.678;2023-02-08T11:55:24;7.22;;;3.67;;
50900;SDS011;36879;51.416;6.678;2023-02-08T12:00:19;7.57;;;3.90;;
50900;SDS011;36879;51.416;6.678;2023-02-08T12:02:45;7.07;;;3.42;;
50900;SDS011;36879;51.416;6.678;2023-02-08T12:05:12;8.00;;;3.05;;
50900;SDS011;36879;51.416;6.678;2023-02-08T12:10:14;8.98;;;3.78;;
50900;SDS011;36879;51.416;6.678;2023-02-08T12:12:47;5.35;;;2.67;;
50900;SDS011;36879;51.416;6.678;2023-02-08T12:15:30;5.15;;;2.83;;
50900;SDS011;36879;51.416;6.678;2023-02-08T12:18:04;6.15;;;3.08;;
50900;SDS011;36879;51.416;6.678;2023-02-08T12:25:55;7.53;;;3.10;;
50900;SDS011;36879;51.416;6.678;2023-02-08T12:33:49;6.10;;;3.22;;
50900;SDS011;36879;51.416;6.678;2023-02-08T12:36:38;8.05;;;3.38;;
50900;SDS011;36879;51.416;6.678;2023-02-08T12:39:11;5.40;;;3.03;;
50900;SDS011;36879;51.416;6.678;2023-02-08T12:57:42;6.10;;;3.28;;
50900;SDS011;36879;51.416;6.678;2023-02-08T13:00:17;5.47;;;3.03;;
50900;SDS011;36879;51.416;6.678;2023-02-08T13:05:38;5.03;;;2.67;;
50900;SDS011;36879;51.416;6.678;2023-02-08T13:10:42;6.45;;;2.97;;
50900;SDS011;36879;51.416;6.678;2023-02-08T13:13:13;5.57;;;3.25;;
50900;SDS011;36879;51.416;6.678;2023-02-08T13:15:45;5.72;;;2.45;;
50900;SDS011;36879;51.416;6.678;2023-02-08T13:18:15;5.53;;;2.75;;
50900;SDS011;36879;51.416;6.678;2023-02-08T13:20:44;5.05;;;2.40;;
50900;SDS011;36879;51.416;6.678;2023-02-08T13:25:40;7.57;;;3.70;;
50900;SDS011;36879;51.416;6.678;2023-02-08T13:28:06;7.75;;;2.90;;
50900;SDS011;36879;51.416;6.678;2023-02-08T13:30:36;6.65;;;3.30;;
50900;SDS011;36879;51.416;6.678;2023-02-08T13:33:04;6.13;;;3.17;;
50900;SDS011;36879;51.416;6.678;2023-02-08T13:35:36;6.63;;;3.38;;
50900;SDS011;36879;51.416;6.678;2023-02-08T13:38:16;7.65;;;3.28;;
50900;SDS011;36879;51.416;6.678;2023-02-08T13:40:44;7.55;;;3.13;;
50900;SDS011;36879;51.416;6.678;2023-02-08T13:43:28;4.93;;;2.85;;
50900;SDS011;36879;51.416;6.678;2023-02-08T13:45:56;5.38;;;3.00;;
50900;SDS011;36879;51.416;6.678;2023-02-08T13:48:24;5.70;;;2.95;;
50900;SDS011;36879;51.416;6.678;2023-02-08T13:50:52;5.03;;;2.75;;
50900;SDS011;36879;51.416;6.678;2023-02-08T13:56:09;8.63;;;3.03;;
50900;SDS011;36879;51.416;6.678;2023-02-08T14:01:24;7.85;;;3.22;;
50900;SDS011;36879;51.416;6.678;2023-02-08T14:11:53;6.65;;;3.42;;
50900;SDS011;36879;51.416;6.678;2023-02-08T14:14:31;5.07;;;3.10;;
50900;SDS011;36879;51.416;6.678;2023-02-08T14:17:21;5.85;;;3.17;;
50900;SDS011;36879;51.416;6.678;2023-02-08T14:19:58;5.53;;;2.88;;
50900;SDS011;36879;51.416;6.678;2023-02-08T14:22:33;5.95;;;2.85;;
50900;SDS011;36879;51.416;6.678;2023-02-08T14:25:15;4.70;;;3.05;;
50900;SDS011;36879;51.416;6.678;2023-02-08T14:27:42;7.00;;;3.53;;
50900;SDS011;36879;51.416;6.678;2023-02-08T14:32:43;5.00;;;3.03;;
50900;SDS011;36879;51.416;6.678;2023-02-08T14:37:45;5.07;;;2.78;;
50900;SDS011;36879;51.416;6.678;2023-02-08T14:42:58;5.13;;;3.03;;
50900;SDS011;36879;51.416;6.678;2023-02-08T14:45:46;4.80;;;3.25;;
50900;SDS011;36879;51.416;6.678;2023-02-08T14:48:27;7.93;;;2.53;;
50900;SDS011;36879;51.416;6.678;2023-02-08T14:53:38;5.47;;;2.72;;
50900;SDS011;36879;51.416;6.678;2023-02-08T14:56:18;6.70;;;3.60;;
50900;SDS011;36879;51.416;6.678;2023-02-08T14:58:47;7.13;;;3.45;;
50900;SDS011;36879;51.416;6.678;2023-02-08T15:03:56;4.97;;;3.05;;
50900;SDS011;36879;51.416;6.678;2023-02-08T15:06:29;5.70;;;3.03;;
50900;SDS011;36879;51.416;6.678;2023-02-08T15:08:58;6.40;;;3.35;;
50900;SDS011;36879;51.416;6.678;2023-02-08T15:11:31;5.93;;;2.78;;
50900;SDS011;36879;51.416;6.678;2023-02-08T15:13:58;6.45;;;3.20;;
50900;SDS011;36879;51.416;6.678;2023-02-08T15:16:28;5.28;;;2.50;;
50900;SDS011;36879;51.416;6.678;2023-02-08T15:18:54;6.70;;;3.13;;
50900;SDS011;36879;51.416;6.678;2023-02-08T15:21:21;5.70;;;2.90;;
50900;SDS011;36879;51.416;6.678;2023-02-08T15:23:59;5.03;;;1.92;;
50900;SDS011;36879;51.416;6.678;2023-02-08T15:26:26;5.00;;;2.50;;
50900;SDS011;36879;51.416;6.678;2023-02-08T15:28:52;5.53;;;2.90;;
50900;SDS011;36879;51.416;6.678;2023-02-08T15:31:31;8.63;;;3.35;;
50900;SDS011;36879;51.416;6.678;2023-02-08T15:33:58;7.00;;;3.50;;
50900;SDS011;36879;51.416;6.678;2023-02-08T15:36:33;5.28;;;2.60;;
50900;SDS011;36879;51.416;6.678;2023-02-08T15:39:01;6.32;;;2.83;;
50900;SDS011;36879;51.416;6.678;2023-02-08T15:41:32;7.20;;;2.92;;
50900;SDS011;36879;51.416;6.678;2023-02-08T15:44:19;4.60;;;2.38;;
50900;SDS011;36879;51.416;6.678;2023-02-08T15:46:46;6.35;;;2.63;;
50900;SDS011;36879;51.416;6.678;2023-02-08T15:49:13;10.23;;;3.70;;
50900;SDS011;36879;51.416;6.678;2023-02-08T15:51:40;7.47;;;3.05;;
50900;SDS011;36879;51.416;6.678;2023-02-08T15:54:06;7.95;;;3.90;;
50900;SDS011;36879;51.416;6.678;2023-02-08T15:56:33;4.00;;;2.33;;
50900;SDS011;36879;51.416;6.678;2023-02-08T15:59:00;6.90;;;2.97;;
50900;SDS011;36879;51.416;6.678;2023-02-08T16:01:27;8.55;;;2.72;;
50900;SDS011;36879;51.416;6.678;2023-02-08T16:03:55;5.25;;;2.78;;
50900;SDS011;36879;51.416;6.678;2023-02-08T16:06:33;5.63;;;2.80;;
50900;SDS011;36879;51.416;6.678;2023-02-08T16:09:00;5.43;;;3.03;;
50900;SDS011;36879;51.416;6.678;2023-02-08T16:11:27;7.18;;;3.13;;
50900;SDS011;36879;51.416;6.678;2023-02-08T16:13:56;7.18;;;3.38;;
50900;SDS011;36879;51.416;6.678;2023-02-08T16:27:27;7.78;;;2.97;;
50900;SDS011;36879;51.416;6.678;2023-02-08T16:30:28;7.47;;;3.13;;
50900;SDS011;36879;51.416;6.678;2023-02-08T16:32:56;8.88;;;3.17;;
50900;SDS011;36879;51.416;6.678;2023-02-08T16:37:52;7.28;;;3.08;;
50900;SDS011;36879;51.416;6.678;2023-02-08T16:40:38;7.75;;;3.65;;
50900;SDS011;36879;51.416;6.678;2023-02-08T16:48:25;5.78;;;2.80;;
50900;SDS011;36879;51.416;6.678;2023-02-08T16:50:51;7.38;;;3.15;;
50900;SDS011;36879;51.416;6.678;2023-02-08T16:53:17;10.27;;;3.53;;
50900;SDS011;36879;51.416;6.678;2023-02-08T16:55:43;7.63;;;3.15;;
50900;SDS011;36879;51.416;6.678;2023-02-08T16:58:13;6.88;;;2.78;;
50900;SDS011;36879;51.416;6.678;2023-02-08T17:00:40;7.75;;;3.83;;
50900;SDS011;36879;51.416;6.678;2023-02-08T17:03:06;13.73;;;4.78;;
50900;SDS011;36879;51.416;6.678;2023-02-08T17:05:35;10.63;;;4.03;;
50900;SDS011;36879;51.416;6.678;2023-02-08T17:08:04;8.93;;;3.42;;
50900;SDS011;36879;51.416;6.678;2023-02-08T17:10:34;6.85;;;3.38;;
50900;SDS011;36879;51.416;6.678;2023-02-08T17:13:00;13.13;;;4.38;;
50900;SDS011;36879;51.416;6.678;2023-02-08T17:15:26;8.68;;;2.85;;